Le Roy, MN

9:03 PM CDT on July 23, 2014 (GMT -0500)
Preston (KFKA) Elev 1276 ft | 43.68 °N, 92.17 °W | Change Station

Current weather conditions updated 12 minutes ago

Clear
Clear
68 °F
Feels Like 68 °F
N
4
Wind Variable Wind from North

Tomorrow is forecast to be Warmer than today. Chance of showers tomorrow night.

Today
High -- | Low -- °F
--% Chance of Precip.
Yesterday
High -- | Low -- °F
Precip. -- in
5:50 AM 8:42 PM
Waning Crescent, 7% visible
Pressure 30.18 in
Visibility 10.0 miles
Clouds Clear
Dew Point 61 °F
Humidity 77%
Rainfall 0.00 in
Snow Depth Not available.
UV 0 out of 12
Pollen 6.20 out of 12
Air Quality Not available.
Flu Activity Not available.
METAR KFKA 240151Z AUTO 36003KT 10SM CLR 20/16 A3018 RMK AO2 LTG DSNT E T02010159

More Conditions Fewer Conditions

Pressure 30.18 in
Visibility 10.0 miles
Clouds Clear
Dew Point 61 °F
Humidity 77%
Rainfall 0.00 in
Snow Depth Not available.
UV 0 out of 12
Pollen 6.20 out of 12
Air Quality Not available.
Flu Activity Not available.
METAR KFKA 240151Z AUTO 36003KT 10SM CLR 20/16 A3018 RMK AO2 LTG DSNT E T02010159

More Conditions Fewer Conditions

10-Day Weather Forecast

Almanac

Astronomy

Jul. 23, 2014 Rise Set
Actual Time 5:50 AM CDT 8:42 PM CDT
Civil Twilight 5:16 AM CDT 9:15 PM CDT
Nautical Twilight 4:33 AM CDT 9:58 PM CDT
Astronomical Twilight 3:43 AM CDT 10:47 PM CDT
Moon 3:10 AM CDT (7/23) 6:10 PM CDT (7/23)
Length of Visible Light 15h 59m
Length of Day
14h 51m
Tomorrow will be 1m 57s shorter.
Waning Crescent, 7% of the Moon is Illuminated
Today
Waning Crescent
Jul 26
New
Aug 3
First Quarter
Aug 10
Full
Aug 17
Last Quarter

Today's Extremes

State Highs State Lows

Community

WunderPhotos

Upload Photos

1,736,843 photos uploaded!

Nearby

Snow Depth

Station Depth Elevation
No new snow has been reported.

Earthquake Activity

City Distance Mag. Time & Date
No recent earthquake activity has been reported nearby.
Minimum magnitude displayed is 2.5.

Coastal Water Temperatures

Place Temperature
No Stations Reporting

Nearby Weather Stations

Station Location Temp. Heat Index Dew Point Humidity Wind Precip. Elev Updated Type
Osage, IA 72.5 °F 77 °F 56 °F 56% North  at  0.0 mph 0.00 in / hr 1173 ft 9:02 PM CDT Normal
Steve's Weather Station, Grand Meadow, MN 68.5 °F - 54 °F 61% NNW  at  0.0 mph 0.00 in / hr 1296 ft 9:00 PM CDT Normal
Stewartville, MN 70.1 °F 75 °F 59 °F 67% NW  at  0.0 mph 0.00 in / hr 1253 ft 8:58 PM CDT Normal
St. Ansgar GreenHouse & Floral Shop, St. Ansgar, IA 66.9 °F - 56 °F 67% North  at  0.0 mph 0.00 in / hr 1152 ft 9:03 PM CDT Normal

Show More Stations Show Fewer Stations